Naples, Florida
Current Conditions -  °F | °C
As of 1:53 AM on Saturday 25 Oct 2014 (Local Time) from KAPF Reporting Station
Clear Clear  
Wind Chill: 69°   Ceiling: Unl
Heat Index: 69°   Visibility: 10mi
Dew Point: 58°   Wind: 7mph
Humidity: 68%   Direction: 20°NNE
Pressure: 29.91"   Gusts: NA
Location:  26.14°N, 81.79°W
Report Text: KAPF 250553Z AUTO 02006KT 10SM CLR 21/14 A2991 RMK AO2 SLP128 T02060144 10244 20206 50001
Loading
Personal Weather Stations






























Interactive Weather Map New forecast layout! Learn more

10-Day Weather Forecast

Advertisements
Track Severe Weather on mobile